createdAt,value
2018-01-05T00:00:41.293Z,94152
2018-01-05T00:06:09.474Z,94146
2018-01-05T00:11:38.142Z,94171
2018-01-05T00:17:08.411Z,94173
2018-01-05T00:22:36.625Z,94187
2018-01-05T00:28:04.897Z,94200
2018-01-05T00:33:33.906Z,94214
2018-01-05T00:39:02.113Z,94222
2018-01-05T00:44:30.339Z,94216
2018-01-05T00:49:58.580Z,94237
2018-01-05T00:55:26.797Z,94244
2018-01-05T01:00:55.035Z,94274
2018-01-05T01:06:23.261Z,94255
2018-01-05T01:11:53.177Z,94267
2018-01-05T01:17:21.365Z,94301
2018-01-05T01:23:00.453Z,94309
2018-01-05T01:28:28.678Z,94335
2018-01-05T01:33:56.876Z,94327
2018-01-05T01:39:26.117Z,94331
2018-01-05T01:44:55.077Z,94344
2018-01-05T01:50:23.310Z,94348
2018-01-05T01:55:52.293Z,94351
2018-01-05T02:01:21.413Z,94361
2018-01-05T02:06:49.618Z,94366
2018-01-05T02:12:17.822Z,94371
2018-01-05T02:17:50.050Z,94375
2018-01-05T02:23:18.245Z,94378
2018-01-05T02:28:46.460Z,94385
2018-01-05T02:34:15.397Z,94367
2018-01-05T02:39:44.336Z,94369
2018-01-05T02:45:13.333Z,94367
2018-01-05T02:50:41.570Z,94377
2018-01-05T02:56:10.819Z,94374
2018-01-05T03:01:39.034Z,94376
2018-01-05T03:07:07.253Z,94363
2018-01-05T03:12:35.464Z,94356
2018-01-05T03:18:03.679Z,94375
2018-01-05T03:23:31.874Z,94377
2018-01-05T03:29:00.077Z,94388
2018-01-05T03:34:28.314Z,94383
2018-01-05T03:39:56.527Z,94383
2018-01-05T03:45:24.719Z,94393
2018-01-05T03:50:54.824Z,94399
2018-01-05T03:56:23.029Z,94407
2018-01-05T04:01:51.617Z,94406
2018-01-05T04:07:20.114Z,94413
2018-01-05T04:12:58.473Z,94409
2018-01-05T04:18:26.733Z,94400
2018-01-05T04:23:54.932Z,94416
2018-01-05T04:29:23.164Z,94410
2018-01-05T04:34:51.398Z,94382
2018-01-05T04:40:19.921Z,94389
2018-01-05T04:45:48.370Z,94389
2018-01-05T04:51:17.568Z,94380
2018-01-05T04:56:52.911Z,94376
2018-01-05T05:02:21.143Z,94366
2018-01-05T05:07:49.344Z,94385
2018-01-05T05:13:26.182Z,94368
2018-01-05T05:18:54.377Z,94355
2018-01-05T05:24:22.570Z,94360
2018-01-05T05:29:50.898Z,94356
2018-01-05T05:35:19.169Z,94362
2018-01-05T05:40:47.393Z,94368
2018-01-05T05:46:15.607Z,94379
2018-01-05T05:51:43.843Z,94396
2018-01-05T05:57:12.041Z,94398
2018-01-05T06:02:41.007Z,94393
2018-01-05T06:08:09.980Z,94408
2018-01-05T06:13:38.205Z,94398
2018-01-05T06:19:10.844Z,94383
2018-01-05T06:24:39.063Z,94397
2018-01-05T06:30:07.270Z,94386
2018-01-05T06:35:35.512Z,94392
2018-01-05T06:41:03.707Z,94394
2018-01-05T06:46:31.915Z,94393
2018-01-05T06:52:00.125Z,94397
2018-01-05T06:57:28.310Z,94397
2018-01-05T07:02:58.213Z,94413
2018-01-05T07:08:32.196Z,94409
2018-01-05T07:14:02.350Z,94415
2018-01-05T07:19:30.557Z,94405
2018-01-05T07:24:59.528Z,94405
2018-01-05T07:30:27.742Z,94390
2018-01-05T07:35:55.929Z,94382
2018-01-05T07:41:28.268Z,94400
2018-01-05T07:46:56.479Z,94388
2018-01-05T07:52:24.690Z,94389
2018-01-05T07:57:52.908Z,94394
2018-01-05T08:03:26.773Z,94397
2018-01-05T08:09:00.186Z,94414
2018-01-05T08:14:28.389Z,94401
2018-01-05T08:19:57.749Z,94408
2018-01-05T08:25:26.708Z,94402
2018-01-05T08:30:55.886Z,94403
2018-01-05T08:36:24.162Z,94381
2018-01-05T08:41:53.136Z,94379
2018-01-05T08:47:21.354Z,94382
2018-01-05T08:52:49.553Z,94380
2018-01-05T08:58:17.754Z,94391
2018-01-05T09:03:46.733Z,94386
2018-01-05T09:09:15.617Z,94375
2018-01-05T09:14:44.328Z,94386
2018-01-05T09:20:13.345Z,94385
2018-01-05T09:25:42.008Z,94390
2018-01-05T09:31:10.570Z,94389
2018-01-05T09:36:38.851Z,94383
2018-01-05T09:42:07.114Z,94410
2018-01-05T09:47:35.305Z,94390
2018-01-05T09:53:03.552Z,94391
2018-01-05T09:58:31.797Z,94376
2018-01-05T10:04:06.280Z,94367
2018-01-05T10:09:34.554Z,94385
2018-01-05T10:15:03.671Z,94375
2018-01-05T10:20:31.886Z,94386
2018-01-05T10:26:01.035Z,94395
2018-01-05T10:31:29.280Z,94392
2018-01-05T10:36:58.300Z,94401
2018-01-05T10:42:26.580Z,94386
2018-01-05T10:47:56.058Z,94386
2018-01-05T10:53:27.936Z,94384
2018-01-05T10:58:57.224Z,94366
2018-01-05T11:04:37.619Z,94367
2018-01-05T11:10:05.947Z,94368
2018-01-05T11:15:34.171Z,94373
2018-01-05T11:21:02.370Z,94354
2018-01-05T11:26:33.785Z,94354
2018-01-05T11:32:02.005Z,94349
2018-01-05T11:37:31.113Z,94338
2018-01-05T11:43:04.429Z,94323
2018-01-05T11:48:34.138Z,94313
2018-01-05T11:54:02.489Z,94309
2018-01-05T11:59:30.721Z,94305
2018-01-05T12:05:00.191Z,94307
2018-01-05T12:10:28.410Z,94318
2018-01-05T12:15:56.621Z,94299
2018-01-05T12:21:24.856Z,94283
2018-01-05T12:26:53.079Z,94275
2018-01-05T12:32:23.121Z,94294
2018-01-05T12:37:52.749Z,94287
2018-01-05T12:43:21.270Z,94287
2018-01-05T12:48:51.653Z,94277
2018-01-05T12:54:19.991Z,94285
2018-01-05T12:59:48.338Z,94279
2018-01-05T13:05:16.566Z,94272
2018-01-05T13:10:44.887Z,94272
2018-01-05T13:16:13.334Z,94268
2018-01-05T13:21:41.549Z,94284
2018-01-05T13:27:12.988Z,94296
2018-01-05T13:32:49.418Z,94287
2018-01-05T13:38:18.428Z,94293
2018-01-05T13:43:46.661Z,94298
2018-01-05T13:49:14.891Z,94308
2018-01-05T13:54:43.150Z,94312
2018-01-05T14:00:11.436Z,94307
2018-01-05T14:05:39.697Z,94306
2018-01-05T14:11:08.026Z,94321
2018-01-05T14:16:36.354Z,94314
2018-01-05T14:22:07.301Z,94330
2018-01-05T14:27:36.301Z,94325
2018-01-05T14:33:04.739Z,94342
2018-01-05T14:38:35.127Z,94344
2018-01-05T14:44:03.496Z,94352
2018-01-05T14:49:35.244Z,94337
2018-01-05T14:55:03.462Z,94349
2018-01-05T15:00:31.661Z,94355
2018-01-05T15:05:59.892Z,94359
2018-01-05T15:11:28.116Z,94350
2018-01-05T15:16:57.378Z,94355
2018-01-05T15:22:25.744Z,94347
2018-01-05T15:28:12.800Z,94342
2018-01-05T15:33:41.352Z,94340
2018-01-05T15:39:10.545Z,94341
2018-01-05T15:44:38.765Z,94324
2018-01-05T15:50:11.771Z,94334
2018-01-05T15:55:40.320Z,94328
2018-01-05T16:01:09.598Z,94343
2018-01-05T16:06:38.676Z,94346
2018-01-05T16:12:06.878Z,94358
2018-01-05T16:17:37.869Z,94357
2018-01-05T16:23:14.023Z,94352
2018-01-05T16:28:42.262Z,94358
2018-01-05T16:34:12.424Z,94353
2018-01-05T16:39:41.569Z,94340
2018-01-05T16:45:09.818Z,94358
2018-01-05T16:50:39.065Z,94345
2018-01-05T16:56:08.052Z,94350
2018-01-05T17:01:36.246Z,94322
2018-01-05T17:07:04.826Z,94319
2018-01-05T17:12:37.423Z,94321
2018-01-05T17:18:05.637Z,94320
2018-01-05T17:23:33.856Z,94318
2018-01-05T17:29:06.316Z,94317
2018-01-05T17:34:35.715Z,94319
2018-01-05T17:40:04.818Z,94314
2018-01-05T17:45:33.136Z,94326
2018-01-05T17:51:06.739Z,94334
2018-01-05T17:56:34.943Z,94339
2018-01-05T18:02:04.106Z,94336
2018-01-05T18:07:32.327Z,94342
2018-01-05T18:13:00.540Z,94350
2018-01-05T18:18:28.751Z,94354
2018-01-05T18:23:56.952Z,94369
2018-01-05T18:29:25.919Z,94369
2018-01-05T18:34:58.264Z,94362
2018-01-05T18:40:27.396Z,94356
2018-01-05T18:45:55.609Z,94360
2018-01-05T18:51:24.606Z,94361
2018-01-05T18:56:54.116Z,94377
2018-01-05T19:02:23.360Z,94388
2018-01-05T19:07:51.767Z,94393
2018-01-05T19:13:19.974Z,94383
2018-01-05T19:18:49.242Z,94393
2018-01-05T19:24:17.697Z,94388
2018-01-05T19:29:45.912Z,94391
2018-01-05T19:35:14.203Z,94395
2018-01-05T19:40:42.509Z,94402
2018-01-05T19:46:10.754Z,94415
2018-01-05T19:51:39.004Z,94414
2018-01-05T19:57:07.280Z,94428
2018-01-05T20:02:36.275Z,94439
2018-01-05T20:08:04.616Z,94441
2018-01-05T20:13:33.074Z,94496
2018-01-05T20:19:01.348Z,94508
2018-01-05T20:24:29.629Z,94519
2018-01-05T20:30:00.507Z,94523
2018-01-05T20:35:29.124Z,94545
2018-01-05T20:40:59.367Z,94544
2018-01-05T20:46:27.919Z,94551
2018-01-05T20:51:56.550Z,94557
2018-01-05T20:57:24.859Z,94545
2018-01-05T21:02:58.146Z,94548
2018-01-05T21:08:29.460Z,94563
2018-01-05T21:13:57.688Z,94567
2018-01-05T21:19:29.572Z,94575
2018-01-05T21:25:04.737Z,94569
2018-01-05T21:30:37.097Z,94571
2018-01-05T21:36:06.647Z,94590
2018-01-05T21:41:36.897Z,94592
2018-01-05T21:47:05.232Z,94598
2018-01-05T21:52:36.398Z,94607
2018-01-05T21:58:05.990Z,94604
2018-01-05T22:03:34.178Z,94619
2018-01-05T22:09:08.048Z,94631
2018-01-05T22:14:36.271Z,94624
2018-01-05T22:20:06.956Z,94640
2018-01-05T22:25:35.261Z,94630
2018-01-05T22:31:18.615Z,94643
2018-01-05T22:36:48.374Z,94643
2018-01-05T22:42:22.622Z,94633
2018-01-05T22:47:51.667Z,94637
2018-01-05T22:53:19.909Z,94642
2018-01-05T22:58:48.094Z,94643
2018-01-05T23:04:18.278Z,94649
2018-01-05T23:09:47.723Z,94654
2018-01-05T23:15:16.678Z,94653
2018-01-05T23:20:44.920Z,94660
2018-01-05T23:26:13.142Z,94659
2018-01-05T23:31:41.328Z,94659
2018-01-05T23:37:11.315Z,94661
2018-01-05T23:42:39.517Z,94671
2018-01-05T23:48:08.540Z,94667
2018-01-05T23:53:37.926Z,94669
2018-01-05T23:59:06.435Z,94678
